createdAt,value
2019-01-16T00:02:40.289Z,13.37
2019-01-16T00:05:49.694Z,12.80
2019-01-16T00:08:57.626Z,13.15
2019-01-16T00:12:19.251Z,12.97
2019-01-16T00:15:43.587Z,12.30
2019-01-16T00:18:55.817Z,12.33
2019-01-16T00:22:18.583Z,11.63
2019-01-16T00:25:37.045Z,11.83
2019-01-16T00:28:43.620Z,11.60
2019-01-16T00:31:50.186Z,11.43
2019-01-16T00:34:56.965Z,11.43
2019-01-16T00:38:09.397Z,10.55
2019-01-16T00:41:24.982Z,10.70
2019-01-16T00:44:34.161Z,11.03
2019-01-16T00:47:56.590Z,10.40
2019-01-16T00:51:18.957Z,9.43
2019-01-16T00:54:25.426Z,9.73
2019-01-16T00:57:34.362Z,10.23
2019-01-16T01:00:43.759Z,9.17
2019-01-16T01:03:53.023Z,8.93
2019-01-16T01:07:15.818Z,8.93
2019-01-16T01:10:24.984Z,9.07
2019-01-16T01:13:37.553Z,8.73
2019-01-16T01:16:59.148Z,8.63
2019-01-16T01:20:08.203Z,9.03
2019-01-16T01:23:32.006Z,8.73
2019-01-16T01:26:44.473Z,8.47
2019-01-16T01:30:06.090Z,9.40
2019-01-16T01:33:28.517Z,8.80
2019-01-16T01:36:46.718Z,8.63
2019-01-16T01:40:04.905Z,9.20
2019-01-16T01:43:14.106Z,9.93
2019-01-16T01:46:23.662Z,10.30
2019-01-16T01:49:42.177Z,9.40
2019-01-16T01:53:06.445Z,9.30
2019-01-16T01:56:15.820Z,9.77
2019-01-16T01:59:30.823Z,9.57
2019-01-16T02:02:40.325Z,10.17
2019-01-16T02:05:49.514Z,9.23
2019-01-16T02:08:56.005Z,10.17
2019-01-16T02:12:21.710Z,9.33
2019-01-16T02:15:28.154Z,9.30
2019-01-16T02:18:47.174Z,10.13
2019-01-16T02:21:48.455Z,10.43
2019-01-16T02:25:01.010Z,10.87
2019-01-16T02:28:13.150Z,10.43
2019-01-16T02:31:19.599Z,10.83
2019-01-16T02:34:37.980Z,11.07
2019-01-16T02:37:44.438Z,11.23
2019-01-16T02:40:56.331Z,11.23
2019-01-16T02:44:02.823Z,11.28
2019-01-16T02:47:12.269Z,12.50
2019-01-16T02:50:21.645Z,12.70
2019-01-16T02:53:44.145Z,12.77
2019-01-16T02:56:56.372Z,13.57
2019-01-16T03:00:11.668Z,13.47
2019-01-16T03:03:19.164Z,12.63
2019-01-16T03:06:25.663Z,13.43
2019-01-16T03:09:34.882Z,13.03
2019-01-16T03:12:59.379Z,13.90
2019-01-16T03:16:17.906Z,15.10
2019-01-16T03:19:40.813Z,14.57
2019-01-16T03:22:50.177Z,14.63
2019-01-16T03:26:05.083Z,15.73
2019-01-16T03:29:14.576Z,15.20
2019-01-16T03:32:24.048Z,14.57
2019-01-16T03:35:36.578Z,16.10
2019-01-16T03:38:59.006Z,15.23
2019-01-16T03:42:08.226Z,15.40
2019-01-16T03:45:14.706Z,16.60
2019-01-16T03:48:27.167Z,16.73
2019-01-16T03:51:33.623Z,16.87
2019-01-16T03:54:56.415Z,19.00
2019-01-16T03:58:05.610Z,18.97
2019-01-16T04:01:28.306Z,19.53
2019-01-16T04:04:46.379Z,19.97
2019-01-16T04:07:52.892Z,19.83
2019-01-16T04:10:59.389Z,20.10
2019-01-16T04:14:09.999Z,20.37
2019-01-16T04:17:16.461Z,21.85
2019-01-16T04:20:22.961Z,22.63
2019-01-16T04:23:35.163Z,22.50
2019-01-16T04:26:41.699Z,22.70
2019-01-16T04:29:54.151Z,23.07
2019-01-16T04:33:00.651Z,23.22
2019-01-16T04:36:16.045Z,23.47
2019-01-16T04:39:22.624Z,22.07
2019-01-16T04:42:35.030Z,22.77
2019-01-16T04:45:41.481Z,22.73
2019-01-16T04:48:50.791Z,21.47
2019-01-16T04:52:06.103Z,22.73
2019-01-16T04:55:13.550Z,23.50
2019-01-16T04:58:22.685Z,22.23
2019-01-16T05:01:34.819Z,21.77
2019-01-16T05:04:56.187Z,21.27
2019-01-16T05:08:02.635Z,21.77
2019-01-16T05:11:25.068Z,21.30
2019-01-16T05:14:34.230Z,21.53
2019-01-16T05:17:46.461Z,19.60
2019-01-16T05:21:08.942Z,20.43
2019-01-16T05:24:30.230Z,19.67
2019-01-16T05:27:52.633Z,20.10
2019-01-16T05:31:15.321Z,19.93
2019-01-16T05:34:27.732Z,19.97
2019-01-16T05:37:46.258Z,18.40
2019-01-16T05:40:55.658Z,17.63
2019-01-16T05:44:12.184Z,17.10
2019-01-16T05:47:19.796Z,16.97
2019-01-16T05:50:29.197Z,15.43
2019-01-16T05:53:35.704Z,14.90
2019-01-16T05:56:58.485Z,15.40
2019-01-16T06:00:06.427Z,13.77
2019-01-16T06:03:21.894Z,15.10
2019-01-16T06:06:28.378Z,14.33
2019-01-16T06:09:50.846Z,15.63
2019-01-16T06:13:06.410Z,14.30
2019-01-16T06:16:15.580Z,15.70
2019-01-16T06:19:22.037Z,15.00
2019-01-16T06:22:43.308Z,16.00
2019-01-16T06:26:05.801Z,16.30
2019-01-16T06:29:28.311Z,17.17
2019-01-16T06:32:37.872Z,16.93
2019-01-16T06:35:47.318Z,18.03
2019-01-16T06:38:53.866Z,18.23
2019-01-16T06:42:02.744Z,18.63
2019-01-16T06:45:09.219Z,19.40
2019-01-16T06:48:15.682Z,19.57
2019-01-16T06:51:27.928Z,19.33
2019-01-16T06:54:50.442Z,18.93
2019-01-16T06:58:08.730Z,19.83
2019-01-16T07:01:17.897Z,19.37
2019-01-16T07:04:24.513Z,19.80
2019-01-16T07:07:36.506Z,19.87
2019-01-16T07:10:45.439Z,19.80
2019-01-16T07:13:57.850Z,20.20
2019-01-16T07:17:04.304Z,21.57
2019-01-16T07:20:10.872Z,22.03
2019-01-16T07:23:23.132Z,22.03
2019-01-16T07:26:29.595Z,21.53
2019-01-16T07:29:54.203Z,20.77
2019-01-16T07:33:00.886Z,21.00
2019-01-16T07:36:19.126Z,20.57
2019-01-16T07:39:34.411Z,20.10
2019-01-16T07:42:58.715Z,20.77
2019-01-16T07:46:07.814Z,19.57
2019-01-16T07:49:30.459Z,19.47
2019-01-16T07:52:39.900Z,19.47
2019-01-16T07:55:58.406Z,20.23
2019-01-16T07:59:21.952Z,17.63
2019-01-16T08:02:43.446Z,18.27
2019-01-16T08:05:49.910Z,18.70
2019-01-16T08:09:08.141Z,18.43
2019-01-16T08:12:23.445Z,19.10
2019-01-16T08:15:45.894Z,18.95
2019-01-16T08:19:08.372Z,17.47
2019-01-16T08:22:17.512Z,17.50
2019-01-16T08:25:26.640Z,17.23
2019-01-16T08:28:42.049Z,16.83
2019-01-16T08:32:06.494Z,16.73
2019-01-16T08:35:21.741Z,16.27
2019-01-16T08:38:44.155Z,17.67
2019-01-16T08:41:50.671Z,16.77
2019-01-16T08:44:57.129Z,16.00
2019-01-16T08:48:19.591Z,15.53
2019-01-16T08:51:26.088Z,15.87
2019-01-16T08:54:32.564Z,14.87
2019-01-16T08:57:54.202Z,14.83
2019-01-16T09:01:09.631Z,14.20
2019-01-16T09:04:32.438Z,15.07
2019-01-16T09:07:53.962Z,14.23
2019-01-16T09:11:16.530Z,14.03
2019-01-16T09:14:31.706Z,15.97
2019-01-16T09:17:38.173Z,15.00
2019-01-16T09:20:47.378Z,13.97
2019-01-16T09:24:06.778Z,14.20
2019-01-16T09:27:15.925Z,14.17
2019-01-16T09:30:38.569Z,14.30
2019-01-16T09:33:54.145Z,13.37
2019-01-16T09:37:00.602Z,14.33
2019-01-16T09:40:13.077Z,13.50
2019-01-16T09:43:19.561Z,13.90
2019-01-16T09:46:26.050Z,13.27
2019-01-16T09:49:32.504Z,13.67
2019-01-16T09:52:50.747Z,12.03
2019-01-16T09:56:12.080Z,12.87
2019-01-16T09:59:18.631Z,12.47
2019-01-16T10:02:43.064Z,12.07
2019-01-16T10:05:49.543Z,13.60
2019-01-16T10:08:56.011Z,13.27
2019-01-16T10:12:02.502Z,11.97
2019-01-16T10:15:17.614Z,11.23
2019-01-16T10:18:26.770Z,10.77
2019-01-16T10:21:34.024Z,10.67
2019-01-16T10:24:41.450Z,11.17
2019-01-16T10:28:02.681Z,10.73
2019-01-16T10:31:11.619Z,10.07
2019-01-16T10:34:21.031Z,10.63
2019-01-16T10:37:30.246Z,10.03
2019-01-16T10:40:48.506Z,9.40
2019-01-16T10:44:11.257Z,11.40
2019-01-16T10:47:32.597Z,10.63
2019-01-16T10:50:48.092Z,11.00
2019-01-16T10:54:10.589Z,10.27
2019-01-16T10:57:35.142Z,10.40
2019-01-16T11:00:41.640Z,10.53
2019-01-16T11:03:50.802Z,10.55
2019-01-16T11:06:57.295Z,10.10
2019-01-16T11:10:19.868Z,9.70
2019-01-16T11:13:42.613Z,9.87
2019-01-16T11:16:56.652Z,10.23
2019-01-16T11:20:00.259Z,9.37
2019-01-16T11:23:21.910Z,9.87
2019-01-16T11:26:34.187Z,9.33
2019-01-16T11:29:52.366Z,9.93
2019-01-16T11:32:58.882Z,10.53
2019-01-16T11:36:14.449Z,9.60
2019-01-16T11:39:38.827Z,8.47
2019-01-16T11:42:45.327Z,9.10
2019-01-16T11:46:15.090Z,8.87
2019-01-16T11:49:27.235Z,8.80
2019-01-16T11:52:33.692Z,8.07
2019-01-16T11:55:40.171Z,8.70
2019-01-16T11:58:46.667Z,8.50
2019-01-16T12:02:05.121Z,8.50
2019-01-16T12:05:15.461Z,8.47
2019-01-16T12:08:27.602Z,8.50
2019-01-16T12:11:42.681Z,8.63
2019-01-16T12:14:51.534Z,8.07
2019-01-16T12:18:09.980Z,7.72
2019-01-16T12:21:16.519Z,7.27
2019-01-16T12:24:28.733Z,7.23
2019-01-16T12:27:35.210Z,7.63
2019-01-16T12:30:47.335Z,7.20
2019-01-16T12:33:53.781Z,6.60
2019-01-16T12:37:00.266Z,7.00
2019-01-16T12:40:21.234Z,7.37
2019-01-16T12:43:30.442Z,7.57
2019-01-16T12:46:52.988Z,7.20
2019-01-16T12:49:59.473Z,7.10
2019-01-16T12:53:08.970Z,6.50
2019-01-16T12:56:18.380Z,6.50
2019-01-16T12:59:39.805Z,6.40
2019-01-16T13:03:01.145Z,6.40
2019-01-16T13:09:36.878Z,6.60
2019-01-16T13:12:43.414Z,6.17
2019-01-16T13:15:55.626Z,5.83
2019-01-16T13:19:02.077Z,6.13
2019-01-16T13:22:11.589Z,5.73
2019-01-16T13:25:29.894Z,5.33
2019-01-16T13:28:52.591Z,5.63
2019-01-16T13:32:08.125Z,5.33
2019-01-16T13:35:17.270Z,5.70
2019-01-16T13:38:23.781Z,5.40
2019-01-16T13:41:30.238Z,5.63
2019-01-16T13:44:36.730Z,5.67
2019-01-16T13:47:59.224Z,5.27
2019-01-16T13:51:14.462Z,5.20
2019-01-16T13:54:33.012Z,4.77
2019-01-16T13:57:39.499Z,5.00
2019-01-16T14:00:48.921Z,5.07
2019-01-16T14:03:55.442Z,5.20
2019-01-16T14:07:10.674Z,5.83
2019-01-16T14:10:33.062Z,5.80
2019-01-16T14:13:48.621Z,5.07
2019-01-16T14:16:57.513Z,5.20
2019-01-16T14:20:06.721Z,5.20
2019-01-16T14:23:24.710Z,4.93
2019-01-16T14:26:36.912Z,5.50
2019-01-16T14:29:52.302Z,5.57
2019-01-16T14:33:15.221Z,5.70
2019-01-16T14:36:22.873Z,5.72
2019-01-16T14:39:45.467Z,5.17
2019-01-16T14:43:00.737Z,5.77
2019-01-16T14:46:22.045Z,6.23
2019-01-16T14:49:40.371Z,5.50
2019-01-16T14:52:49.893Z,5.87
2019-01-16T14:55:59.128Z,5.50
2019-01-16T14:59:05.681Z,5.23
2019-01-16T15:02:12.334Z,5.50
2019-01-16T15:05:27.214Z,5.70
2019-01-16T15:08:48.752Z,5.90
2019-01-16T15:12:00.779Z,5.27
2019-01-16T15:15:17.787Z,5.33
2019-01-16T15:18:42.086Z,5.03
2019-01-16T15:22:06.419Z,5.87
2019-01-16T15:25:25.076Z,5.40
2019-01-16T15:28:37.231Z,5.80
2019-01-16T15:31:52.255Z,5.80
2019-01-16T15:34:58.701Z,5.30
2019-01-16T15:38:08.284Z,5.50
2019-01-16T15:41:15.014Z,6.20
2019-01-16T15:44:27.275Z,5.60
2019-01-16T15:47:33.779Z,6.03
2019-01-16T15:50:45.978Z,5.43
2019-01-16T15:54:07.314Z,5.43
2019-01-16T15:57:16.593Z,6.10
2019-01-16T16:00:23.778Z,5.75
2019-01-16T16:03:36.017Z,5.73
2019-01-16T16:06:45.320Z,6.23
2019-01-16T16:09:54.766Z,5.63
2019-01-16T16:13:08.134Z,6.20
2019-01-16T16:16:14.602Z,5.70
2019-01-16T16:19:21.118Z,6.17
2019-01-16T16:22:27.603Z,6.20
2019-01-16T16:25:37.105Z,6.20
2019-01-16T16:28:58.350Z,6.00
2019-01-16T16:32:10.511Z,6.30
2019-01-16T16:35:25.826Z,6.45
2019-01-16T16:38:40.966Z,6.13
2019-01-16T16:41:50.422Z,7.20
2019-01-16T16:45:15.031Z,6.47
2019-01-16T16:48:36.297Z,6.10
2019-01-16T16:51:42.780Z,6.73
2019-01-16T16:55:04.215Z,6.10
2019-01-16T16:58:10.757Z,6.73
2019-01-16T17:01:26.008Z,6.20
2019-01-16T17:04:35.269Z,6.00
2019-01-16T17:07:44.704Z,6.17
2019-01-16T17:10:54.215Z,6.47
2019-01-16T17:14:03.577Z,6.90
2019-01-16T17:17:10.113Z,6.53
2019-01-16T17:20:32.653Z,6.77
2019-01-16T17:23:44.899Z,7.20
2019-01-16T17:26:57.121Z,7.10
2019-01-16T17:30:09.650Z,6.87
2019-01-16T17:33:16.129Z,6.53
2019-01-16T17:36:25.300Z,7.80
2019-01-16T17:39:40.706Z,7.23
2019-01-16T17:42:53.026Z,6.57
2019-01-16T17:46:15.849Z,7.03
2019-01-16T17:49:22.385Z,7.30
2019-01-16T17:52:43.554Z,7.47
2019-01-16T17:55:55.822Z,7.27
2019-01-16T17:59:18.335Z,7.30
2019-01-16T18:02:27.468Z,6.73
2019-01-16T18:05:33.964Z,7.77
2019-01-16T18:08:56.424Z,8.40
2019-01-16T18:12:05.802Z,7.37
2019-01-16T18:15:15.372Z,8.17
2019-01-16T18:18:27.748Z,7.63
2019-01-16T18:21:34.234Z,8.63
2019-01-16T18:24:44.619Z,7.63
2019-01-16T18:28:05.858Z,7.47
2019-01-16T18:31:12.362Z,6.87
2019-01-16T18:34:18.830Z,7.90
2019-01-16T18:37:40.336Z,7.40
2019-01-16T18:40:46.810Z,7.73
2019-01-16T18:44:09.578Z,7.47
2019-01-16T18:47:16.046Z,7.83
2019-01-16T18:50:31.870Z,7.97
2019-01-16T18:53:47.454Z,7.97
2019-01-16T18:56:53.923Z,8.40
2019-01-16T19:00:03.170Z,8.47
2019-01-16T19:03:09.622Z,7.83
2019-01-16T19:06:24.816Z,8.53
2019-01-16T19:09:32.178Z,8.30
2019-01-16T19:12:38.630Z,8.37
2019-01-16T19:16:01.095Z,7.90
2019-01-16T19:19:23.970Z,8.10
2019-01-16T19:22:30.455Z,7.70
2019-01-16T19:25:37.006Z,8.10
2019-01-16T19:28:59.934Z,8.20
2019-01-16T19:32:24.344Z,8.23
2019-01-16T19:35:30.806Z,8.30
2019-01-16T19:38:52.389Z,8.17
2019-01-16T19:42:04.761Z,9.17
2019-01-16T19:45:21.547Z,8.43
2019-01-16T19:48:39.601Z,8.63
2019-01-16T19:51:48.506Z,8.23
2019-01-16T19:54:57.651Z,8.70
2019-01-16T19:58:07.122Z,8.87
2019-01-16T20:01:29.727Z,9.07
2019-01-16T20:04:54.284Z,8.53
2019-01-16T20:08:03.198Z,8.27
2019-01-16T20:11:12.626Z,8.87
2019-01-16T20:14:21.716Z,8.73
2019-01-16T20:17:39.815Z,8.10
2019-01-16T20:20:56.056Z,8.33
2019-01-16T20:24:18.637Z,9.20
2019-01-16T20:27:30.990Z,8.57
2019-01-16T20:30:43.392Z,9.33
2019-01-16T20:34:05.925Z,9.00
2019-01-16T20:37:12.429Z,9.37
2019-01-16T20:40:21.349Z,8.50
2019-01-16T20:43:45.906Z,8.37
2019-01-16T20:46:55.298Z,8.20
2019-01-16T20:50:01.779Z,8.60
2019-01-16T20:53:11.027Z,8.60
2019-01-16T20:56:23.233Z,8.43
2019-01-16T20:59:32.421Z,9.33
2019-01-16T21:02:54.917Z,8.60
2019-01-16T21:06:02.274Z,8.07
2019-01-16T21:09:24.002Z,9.20
2019-01-16T21:12:36.298Z,8.17
2019-01-16T21:15:42.759Z,8.10
2019-01-16T21:18:52.133Z,8.50
2019-01-16T21:22:01.305Z,9.53
2019-01-16T21:25:18.305Z,9.40
2019-01-16T21:28:31.460Z,9.97
2019-01-16T21:31:53.767Z,10.77
2019-01-16T21:35:03.185Z,10.83
2019-01-16T21:38:12.458Z,10.50
2019-01-16T21:41:25.418Z,11.50
2019-01-16T21:44:31.918Z,12.00
2019-01-16T21:47:38.378Z,10.97
2019-01-16T21:50:53.580Z,10.60
2019-01-16T21:54:00.052Z,11.00
2019-01-16T21:57:22.794Z,10.77
2019-01-16T22:00:31.945Z,11.00
2019-01-16T22:03:38.428Z,11.53
2019-01-16T22:06:44.902Z,10.83
2019-01-16T22:09:51.397Z,10.80
2019-01-16T22:13:03.787Z,10.40
2019-01-16T22:16:12.914Z,11.07
2019-01-16T22:19:35.776Z,10.67
2019-01-16T22:22:51.421Z,11.63
2019-01-16T22:26:13.866Z,10.40
2019-01-16T22:29:26.074Z,11.27
2019-01-16T22:32:47.494Z,10.27
2019-01-16T22:35:53.950Z,10.20
2019-01-16T22:39:00.442Z,11.17
2019-01-16T22:42:18.472Z,9.70
2019-01-16T22:45:27.902Z,11.17
2019-01-16T22:48:34.367Z,10.50
2019-01-16T22:51:57.110Z,9.93
2019-01-16T22:55:18.330Z,9.87
2019-01-16T22:58:24.860Z,10.23
2019-01-16T23:01:31.412Z,11.10
2019-01-16T23:04:53.165Z,10.47
2019-01-16T23:08:02.208Z,10.47
2019-01-16T23:11:14.511Z,9.97
2019-01-16T23:14:21.056Z,9.70
2019-01-16T23:17:39.587Z,10.53
2019-01-16T23:21:02.094Z,10.97
2019-01-16T23:24:24.494Z,10.60
2019-01-16T23:27:30.980Z,10.70
2019-01-16T23:30:40.102Z,9.80
2019-01-16T23:33:55.663Z,10.40
2019-01-16T23:37:05.013Z,9.60
2019-01-16T23:40:26.676Z,10.57
2019-01-16T23:43:44.924Z,10.30
2019-01-16T23:47:07.590Z,10.67
2019-01-16T23:50:31.321Z,10.67
2019-01-16T23:53:37.814Z,10.60
2019-01-16T23:56:59.141Z,10.13
